createdAt,value
2016-03-09T00:00:43.128Z,0
2016-03-09T00:01:43.147Z,0
2016-03-09T00:02:43.133Z,0
2016-03-09T00:03:43.166Z,0
2016-03-09T00:04:43.155Z,0
2016-03-09T00:05:43.204Z,0
2016-03-09T00:06:43.191Z,0
2016-03-09T00:07:43.209Z,0
2016-03-09T00:08:43.243Z,0
2016-03-09T00:09:43.246Z,0
2016-03-09T00:10:43.249Z,0
2016-03-09T00:11:43.235Z,0
2016-03-09T00:12:43.269Z,0
2016-03-09T00:13:43.257Z,0
2016-03-09T00:14:43.321Z,0
2016-03-09T00:15:42.543Z,0
2016-03-09T00:16:43.312Z,0
2016-03-09T00:17:43.329Z,0
2016-03-09T00:18:43.332Z,0
2016-03-09T00:19:43.351Z,0
2016-03-09T00:20:43.353Z,0
2016-03-09T00:21:43.372Z,0
2016-03-09T00:22:43.374Z,0
2016-03-09T00:23:43.377Z,0
2016-03-09T00:24:43.411Z,0
2016-03-09T00:25:43.429Z,0
2016-03-09T00:26:43.417Z,0
2016-03-09T00:27:43.419Z,0
2016-03-09T00:28:43.422Z,0
2016-03-09T00:29:43.456Z,0
2016-03-09T00:30:43.442Z,0
2016-03-09T00:31:43.467Z,0
2016-03-09T00:32:43.454Z,0
2016-03-09T00:33:43.489Z,0
2016-03-09T00:34:43.522Z,0
2016-03-09T00:35:43.509Z,0
2016-03-09T00:36:43.512Z,0
2016-03-09T00:37:43.530Z,0
2016-03-09T00:38:43.548Z,0
2016-03-09T00:39:43.567Z,0
2016-03-09T00:40:43.585Z,0
2016-03-09T00:41:43.603Z,0
2016-03-09T00:42:43.606Z,0
2016-03-09T00:43:43.608Z,0
2016-03-09T00:44:43.611Z,0
2016-03-09T00:45:43.630Z,0
2016-03-09T00:46:43.648Z,0
2016-03-09T00:47:43.651Z,0
2016-03-09T00:48:43.637Z,0
2016-03-09T00:49:43.672Z,0
2016-03-09T00:50:43.659Z,0
2016-03-09T00:51:43.708Z,0
2016-03-09T00:52:43.679Z,0
2016-03-09T00:53:43.760Z,0
2016-03-09T00:54:43.716Z,0
2016-03-09T00:55:43.719Z,0
2016-03-09T00:56:43.737Z,0
2016-03-09T00:57:43.771Z,0
2016-03-09T00:58:43.774Z,0
2016-03-09T00:59:43.776Z,0
2016-03-09T01:00:43.779Z,0
2016-03-09T01:01:43.798Z,0
2016-03-09T01:02:43.800Z,0
2016-03-09T01:03:43.819Z,0
2016-03-09T01:04:43.822Z,0
2016-03-09T01:05:43.825Z,0
2016-03-09T01:06:43.851Z,0
2016-03-09T01:07:43.870Z,0
2016-03-09T01:08:43.872Z,0
2016-03-09T01:09:43.875Z,0
2016-03-09T01:10:43.893Z,0
2016-03-09T01:11:43.881Z,0
2016-03-09T01:12:43.914Z,0
2016-03-09T01:13:43.932Z,0
2016-03-09T01:14:43.920Z,0
2016-03-09T01:15:43.937Z,0
2016-03-09T01:16:43.940Z,0
2016-03-09T01:17:43.975Z,0
2016-03-09T01:18:43.977Z,0
2016-03-09T01:19:43.995Z,0
2016-03-09T01:20:43.982Z,0
2016-03-09T01:21:44.033Z,0
2016-03-09T01:22:44.003Z,0
2016-03-09T01:23:44.022Z,0
2016-03-09T01:24:44.041Z,0
2016-03-09T01:25:44.043Z,0
2016-03-09T01:26:44.061Z,0
2016-03-09T01:27:44.080Z,0
2016-03-09T01:28:44.082Z,0
2016-03-09T01:29:44.085Z,0
2016-03-09T01:30:44.102Z,0
2016-03-09T01:31:44.106Z,0
2016-03-09T01:32:44.108Z,0
2016-03-09T01:33:44.143Z,0
2016-03-09T01:34:44.130Z,0
2016-03-09T01:35:44.148Z,0
2016-03-09T01:36:44.151Z,0
2016-03-09T01:37:44.185Z,0
2016-03-09T01:38:44.171Z,0
2016-03-09T01:39:44.189Z,0
2016-03-09T01:40:44.192Z,0
2016-03-09T01:41:44.211Z,0
2016-03-09T01:42:44.214Z,0
2016-03-09T01:43:44.232Z,0
2016-03-09T01:44:44.250Z,0
2016-03-09T01:45:44.268Z,0
2016-03-09T01:46:44.255Z,0
2016-03-09T01:47:44.274Z,0
2016-03-09T01:48:44.292Z,0
2016-03-09T01:49:44.278Z,0
2016-03-09T01:50:44.313Z,0
2016-03-09T01:51:44.316Z,0
2016-03-09T01:52:44.319Z,0
2016-03-09T01:53:44.384Z,0
2016-03-09T01:54:44.355Z,0
2016-03-09T01:55:44.389Z,0
2016-03-09T01:56:44.360Z,0
2016-03-09T01:57:44.395Z,0
2016-03-09T01:58:44.141Z,0
2016-03-09T01:59:44.477Z,0
2016-03-09T02:00:44.262Z,0
2016-03-09T02:01:44.415Z,0
2016-03-09T02:02:44.262Z,0
2016-03-09T02:03:44.420Z,0
2016-03-09T02:04:44.282Z,0
2016-03-09T02:05:44.488Z,0
2016-03-09T02:06:44.308Z,0
2016-03-09T02:07:44.359Z,0
2016-03-09T02:08:44.158Z,0
2016-03-09T02:09:44.408Z,0
2016-03-09T02:10:44.496Z,0
2016-03-09T02:11:44.798Z,0
2016-03-09T02:12:44.538Z,0
2016-03-09T02:13:44.571Z,0
2016-03-09T02:14:44.558Z,0
2016-03-09T02:15:44.436Z,0
2016-03-09T02:16:44.266Z,0
2016-03-09T02:17:44.583Z,0
2016-03-09T02:18:44.429Z,0
2016-03-09T02:19:44.619Z,0
2016-03-09T02:20:44.606Z,0
2016-03-09T02:21:44.624Z,0
2016-03-09T02:22:44.643Z,0
2016-03-09T02:23:44.660Z,0
2016-03-09T02:24:44.663Z,0
2016-03-09T02:25:44.760Z,0
2016-03-09T02:26:44.668Z,0
2016-03-09T02:27:44.703Z,0
2016-03-09T02:28:44.690Z,0
2016-03-09T02:29:44.723Z,0
2016-03-09T02:30:44.726Z,0
2016-03-09T02:31:44.729Z,0
2016-03-09T02:32:44.748Z,0
2016-03-09T02:33:44.750Z,0
2016-03-09T02:34:44.768Z,0
2016-03-09T02:35:44.818Z,0
2016-03-09T02:36:44.789Z,0
2016-03-09T02:37:44.808Z,0
2016-03-09T02:38:44.811Z,0
2016-03-09T02:39:44.844Z,0
2016-03-09T02:40:44.816Z,0
2016-03-09T02:41:44.818Z,0
2016-03-09T02:42:44.837Z,0
2016-03-09T02:43:44.871Z,0
2016-03-09T02:44:44.888Z,0
2016-03-09T02:45:44.892Z,0
2016-03-09T02:46:44.879Z,0
2016-03-09T02:47:44.913Z,0
2016-03-09T02:48:44.900Z,0
2016-03-09T02:49:44.934Z,0
2016-03-09T02:50:44.937Z,0
2016-03-09T02:51:44.970Z,0
2016-03-09T02:52:44.958Z,0
2016-03-09T02:53:44.976Z,0
2016-03-09T02:54:44.962Z,0
2016-03-09T02:55:44.996Z,0
2016-03-09T02:56:44.999Z,0
2016-03-09T02:57:45.017Z,0
2016-03-09T02:58:45.005Z,0
2016-03-09T02:59:44.289Z,0
2016-03-09T03:00:45.026Z,0
2016-03-09T03:01:45.044Z,0
2016-03-09T03:02:45.062Z,0
2016-03-09T03:03:45.065Z,0
2016-03-09T03:04:45.067Z,0
2016-03-09T03:05:45.086Z,0
2016-03-09T03:06:45.089Z,0
2016-03-09T03:07:45.122Z,0
2016-03-09T03:08:45.125Z,0
2016-03-09T03:09:45.144Z,0
2016-03-09T03:10:45.131Z,0
2016-03-09T03:11:45.149Z,0
2016-03-09T03:12:45.152Z,0
2016-03-09T03:13:45.202Z,0
2016-03-09T03:14:45.188Z,0
2016-03-09T03:15:45.191Z,0
2016-03-09T03:16:45.210Z,0
2016-03-09T03:17:45.213Z,0
2016-03-09T03:18:45.230Z,0
2016-03-09T03:19:45.233Z,0
2016-03-09T03:20:45.252Z,0
2016-03-09T03:21:45.254Z,0
2016-03-09T03:22:45.288Z,0
2016-03-09T03:23:45.276Z,0
2016-03-09T03:24:45.293Z,0
2016-03-09T03:25:45.312Z,0
2016-03-09T03:26:46.204Z,0
2016-03-09T03:27:45.333Z,0
2016-03-09T03:28:45.320Z,0
2016-03-09T03:29:45.353Z,0
2016-03-09T03:30:45.340Z,0
2016-03-09T03:31:45.375Z,0
2016-03-09T03:32:45.392Z,0
2016-03-09T03:33:45.381Z,0
2016-03-09T03:34:45.398Z,0
2016-03-09T03:35:45.401Z,0
2016-03-09T03:36:45.403Z,0
2016-03-09T03:37:45.422Z,0
2016-03-09T03:38:45.441Z,0
2016-03-09T03:39:45.443Z,0
2016-03-09T03:40:45.478Z,0
2016-03-09T03:41:45.464Z,0
2016-03-09T03:42:45.483Z,0
2016-03-09T03:43:45.500Z,0
2016-03-09T03:44:45.488Z,0
2016-03-09T03:45:45.506Z,0
2016-03-09T03:46:45.524Z,0
2016-03-09T03:47:45.527Z,0
2016-03-09T03:48:45.561Z,0
2016-03-09T03:49:45.532Z,0
2016-03-09T03:50:45.552Z,0
2016-03-09T03:51:45.585Z,0
2016-03-09T03:52:45.588Z,0
2016-03-09T03:53:45.621Z,0
2016-03-09T03:54:45.593Z,0
2016-03-09T03:55:45.612Z,0
2016-03-09T03:56:45.629Z,0
2016-03-09T03:57:45.679Z,0
2016-03-09T03:58:45.651Z,0
2016-03-09T03:59:45.669Z,0
2016-03-09T04:00:45.671Z,0
2016-03-09T04:01:45.674Z,0
2016-03-09T04:02:45.708Z,0
2016-03-09T04:03:45.695Z,0
2016-03-09T04:04:45.728Z,0
2016-03-09T04:05:45.701Z,0
2016-03-09T04:06:45.719Z,0
2016-03-09T04:07:45.753Z,0
2016-03-09T04:08:45.817Z,0
2016-03-09T04:09:45.774Z,0
2016-03-09T04:10:45.792Z,0
2016-03-09T04:11:45.794Z,0
2016-03-09T04:12:45.798Z,0
2016-03-09T04:13:45.800Z,0
2016-03-09T04:14:45.818Z,0
2016-03-09T04:15:45.836Z,0
2016-03-09T04:16:45.824Z,0
2016-03-09T04:17:45.858Z,0
2016-03-09T04:18:45.860Z,0
2016-03-09T04:19:45.722Z,0
2016-03-09T04:20:45.866Z,0
2016-03-09T04:21:45.899Z,0
2016-03-09T04:22:45.888Z,0
2016-03-09T04:23:45.905Z,0
2016-03-09T04:24:45.924Z,0
2016-03-09T04:25:45.910Z,0
2016-03-09T04:26:45.945Z,0
2016-03-09T04:27:45.979Z,0
2016-03-09T04:28:45.958Z,0
2016-03-09T04:29:45.948Z,0
2016-03-09T04:30:45.955Z,0
2016-03-09T04:31:45.961Z,0
2016-03-09T04:32:45.937Z,0
2016-03-09T04:33:45.948Z,0
2016-03-09T04:34:45.978Z,0
2016-03-09T04:35:45.961Z,0
2016-03-09T04:36:45.975Z,0
2016-03-09T04:37:45.989Z,0
2016-03-09T04:38:45.989Z,0
2016-03-09T04:39:45.990Z,0
2016-03-09T04:40:46.023Z,0
2016-03-09T04:41:46.025Z,0
2016-03-09T04:42:46.026Z,0
2016-03-09T04:43:46.027Z,0
2016-03-09T04:44:46.029Z,0
2016-03-09T04:45:46.062Z,0
2016-03-09T04:46:46.048Z,0
2016-03-09T04:47:46.066Z,0
2016-03-09T04:48:46.082Z,0
2016-03-09T04:49:46.085Z,0
2016-03-09T04:50:46.103Z,0
2016-03-09T04:51:46.090Z,0
2016-03-09T04:52:46.139Z,0
2016-03-09T04:53:46.141Z,0
2016-03-09T04:54:46.144Z,0
2016-03-09T04:55:46.132Z,0
2016-03-09T04:56:46.182Z,0
2016-03-09T04:57:46.199Z,0
2016-03-09T04:58:46.155Z,0
2016-03-09T04:59:46.173Z,0
2016-03-09T05:00:46.177Z,0
2016-03-09T05:01:46.195Z,0
2016-03-09T05:02:46.244Z,0
2016-03-09T05:03:46.232Z,0
2016-03-09T05:04:46.234Z,0
2016-03-09T05:05:46.081Z,0
2016-03-09T05:06:46.276Z,0
2016-03-09T05:07:46.295Z,0
2016-03-09T05:08:46.157Z,0
2016-03-09T05:09:46.284Z,0
2016-03-09T05:10:46.304Z,0
2016-03-09T05:11:46.306Z,0
2016-03-09T05:12:46.324Z,0
2016-03-09T05:13:46.343Z,0
2016-03-09T05:14:46.329Z,0
2016-03-09T05:15:46.363Z,0
2016-03-09T05:16:46.350Z,0
2016-03-09T05:17:46.368Z,0
2016-03-09T05:18:46.371Z,0
2016-03-09T05:19:46.390Z,0
2016-03-09T05:20:46.408Z,0
2016-03-09T05:21:46.395Z,4
2016-03-09T05:22:46.398Z,4
2016-03-09T05:23:46.447Z,0
2016-03-09T05:24:46.434Z,4
2016-03-09T05:25:46.468Z,4
2016-03-09T05:26:46.471Z,4
2016-03-09T05:27:46.458Z,4
2016-03-09T05:28:46.477Z,4
2016-03-09T05:29:46.511Z,8
2016-03-09T05:30:46.498Z,4
2016-03-09T05:32:46.519Z,12
2016-03-09T05:33:46.505Z,12
2016-03-09T05:34:46.508Z,16
2016-03-09T05:35:46.527Z,16
2016-03-09T05:36:45.763Z,20
2016-03-09T05:37:46.579Z,28
2016-03-09T05:38:46.549Z,32
2016-03-09T05:39:46.569Z,36
2016-03-09T05:40:46.588Z,44
2016-03-09T05:41:46.574Z,48
2016-03-09T05:42:46.593Z,56
2016-03-09T05:43:46.643Z,68
2016-03-09T05:44:46.613Z,80
2016-03-09T05:45:46.632Z,92
2016-03-09T05:46:46.634Z,104
2016-03-09T05:47:46.637Z,116
2016-03-09T05:48:46.655Z,132
2016-03-09T05:49:46.673Z,148
2016-03-09T05:50:46.677Z,168
2016-03-09T05:51:46.695Z,188
2016-03-09T05:52:46.697Z,212
2016-03-09T05:53:46.715Z,236
2016-03-09T05:54:46.734Z,260
2016-03-09T05:55:46.720Z,284
2016-03-09T05:56:46.739Z,312
2016-03-09T05:57:46.758Z,344
2016-03-09T05:58:46.776Z,372
2016-03-09T05:59:46.764Z,404
2016-03-09T06:00:46.782Z,440
2016-03-09T06:01:46.784Z,480
2016-03-09T06:02:46.802Z,516
2016-03-09T06:03:46.822Z,556
2016-03-09T06:04:46.840Z,592
2016-03-09T06:05:46.827Z,632
2016-03-09T06:06:46.814Z,672
2016-03-09T06:07:46.863Z,716
2016-03-09T06:08:46.866Z,756
2016-03-09T06:09:46.869Z,800
2016-03-09T06:10:46.872Z,840
2016-03-09T06:11:46.890Z,884
2016-03-09T06:12:46.908Z,924
2016-03-09T06:13:46.911Z,968
2016-03-09T06:14:46.288Z,1012
2016-03-09T06:15:46.979Z,1048
2016-03-09T06:16:46.949Z,1092
2016-03-09T06:17:46.938Z,1140
2016-03-09T06:18:46.987Z,1188
2016-03-09T06:19:46.974Z,1232
2016-03-09T06:20:47.008Z,1276
2016-03-09T06:21:47.010Z,1324
2016-03-09T06:22:46.841Z,1376
2016-03-09T06:23:47.015Z,1436
2016-03-09T06:24:47.018Z,1488
2016-03-09T06:25:47.037Z,1536
2016-03-09T06:26:47.040Z,1600
2016-03-09T06:27:47.058Z,1660
2016-03-09T06:28:47.060Z,1704
2016-03-09T06:29:47.095Z,1760
2016-03-09T06:30:47.112Z,1820
2016-03-09T06:31:47.115Z,1876
2016-03-09T06:32:47.117Z,1924
2016-03-09T06:33:47.121Z,1968
2016-03-09T06:34:47.124Z,2020
2016-03-09T06:35:47.189Z,2060
2016-03-09T06:36:47.145Z,2116
2016-03-09T06:37:47.178Z,2156
2016-03-09T06:38:47.025Z,2216
2016-03-09T06:39:47.183Z,2276
2016-03-09T06:40:47.202Z,2324
2016-03-09T06:41:47.205Z,2376
2016-03-09T06:42:47.208Z,2416
2016-03-09T06:43:47.226Z,2492
2016-03-09T06:44:47.244Z,2544
2016-03-09T06:45:47.263Z,2580
2016-03-09T06:46:47.265Z,2636
2016-03-09T06:47:47.283Z,2700
2016-03-09T06:48:47.129Z,2712
2016-03-09T06:49:47.274Z,2776
2016-03-09T06:50:46.589Z,2824
2016-03-09T06:51:46.560Z,2864
2016-03-09T06:52:47.344Z,2900
2016-03-09T06:53:47.346Z,2944
2016-03-09T06:54:47.193Z,2996
2016-03-09T06:55:47.351Z,3040
2016-03-09T06:56:47.370Z,3032
2016-03-09T06:57:47.389Z,3112
2016-03-09T06:58:47.391Z,3116
2016-03-09T06:59:47.426Z,3144
2016-03-09T07:00:47.443Z,3180
2016-03-09T07:01:47.445Z,3176
2016-03-09T07:02:47.433Z,3184
2016-03-09T07:03:47.452Z,3160
2016-03-09T07:04:47.439Z,3180
2016-03-09T07:05:47.457Z,3180
2016-03-09T07:06:47.491Z,3200
2016-03-09T07:07:47.494Z,3308
2016-03-09T07:08:47.496Z,3356
2016-03-09T07:09:47.514Z,3264
2016-03-09T07:10:47.503Z,3432
2016-03-09T07:11:47.551Z,3452
2016-03-09T07:12:47.554Z,3524
2016-03-09T07:13:47.556Z,3372
2016-03-09T07:14:47.559Z,3624
2016-03-09T07:15:47.561Z,3652
2016-03-09T07:16:47.596Z,3536
2016-03-09T07:17:47.598Z,3548
2016-03-09T07:18:47.617Z,3744
2016-03-09T07:19:47.636Z,3676
2016-03-09T07:20:47.638Z,3656
2016-03-09T07:21:47.641Z,3824
2016-03-09T07:22:47.659Z,3628
2016-03-09T07:23:47.693Z,3752
2016-03-09T07:24:47.695Z,3656
2016-03-09T07:25:47.682Z,3656
2016-03-09T07:26:47.702Z,3728
2016-03-09T07:27:47.719Z,3880
2016-03-09T07:28:47.722Z,3980
2016-03-09T07:29:47.740Z,3820
2016-03-09T07:30:47.743Z,4032
2016-03-09T07:31:47.777Z,4084
2016-03-09T07:32:47.764Z,4092
2016-03-09T07:33:47.798Z,3972
2016-03-09T07:34:47.785Z,4264
2016-03-09T07:35:47.819Z,4244
2016-03-09T07:36:47.806Z,4336
2016-03-09T07:37:47.824Z,4340
2016-03-09T07:38:47.858Z,4440
2016-03-09T07:39:47.846Z,4364
2016-03-09T07:40:47.879Z,3556
2016-03-09T07:41:47.866Z,4628
2016-03-09T07:42:47.916Z,4272
2016-03-09T07:43:47.918Z,4392
2016-03-09T07:44:47.906Z,4588
2016-03-09T07:45:47.908Z,4668
2016-03-09T07:46:47.958Z,4712
2016-03-09T07:47:47.945Z,4748
2016-03-09T07:48:47.947Z,4768
2016-03-09T07:49:47.997Z,4776
2016-03-09T07:50:47.985Z,4796
2016-03-09T07:51:48.003Z,4800
2016-03-09T07:52:47.974Z,4848
2016-03-09T07:53:48.008Z,4824
2016-03-09T07:54:48.041Z,4864
2016-03-09T07:55:48.060Z,4892
2016-03-09T07:56:48.079Z,4980
2016-03-09T07:57:48.066Z,5008
2016-03-09T07:58:48.084Z,5036
2016-03-09T07:59:48.071Z,5020
2016-03-09T08:00:47.964Z,5080
2016-03-09T08:01:48.123Z,5024
2016-03-09T08:02:48.110Z,5096
2016-03-09T08:03:48.129Z,5064
2016-03-09T08:04:48.147Z,5040
2016-03-09T08:05:48.165Z,5108
2016-03-09T08:06:48.168Z,5224
2016-03-09T08:07:48.201Z,5332
2016-03-09T08:08:48.204Z,5144
2016-03-09T08:09:48.207Z,5240
2016-03-09T08:10:48.225Z,5056
2016-03-09T08:11:48.212Z,5308
2016-03-09T08:12:48.294Z,5204
2016-03-09T08:13:48.296Z,4864
2016-03-09T08:14:48.283Z,5252
2016-03-09T08:15:48.302Z,5248
2016-03-09T08:16:48.289Z,5340
2016-03-09T08:17:48.307Z,5416
2016-03-09T08:18:48.341Z,5448
2016-03-09T08:19:48.312Z,5504
2016-03-09T08:20:48.346Z,5468
2016-03-09T08:21:48.396Z,5516
2016-03-09T08:22:48.352Z,5592
2016-03-09T08:23:48.401Z,5556
2016-03-09T08:24:48.404Z,5592
2016-03-09T08:25:48.391Z,5600
2016-03-09T08:26:48.424Z,5648
2016-03-09T08:27:48.443Z,5676
2016-03-09T08:28:48.477Z,5660
2016-03-09T08:29:48.432Z,5676
2016-03-09T08:30:48.451Z,5688
2016-03-09T08:31:48.470Z,5724
2016-03-09T08:32:48.473Z,5636
2016-03-09T08:33:48.506Z,5632
2016-03-09T08:34:48.509Z,5696
2016-03-09T08:35:48.542Z,5664
2016-03-09T08:36:48.561Z,5736
2016-03-09T08:37:48.549Z,5744
2016-03-09T08:38:48.567Z,5748
2016-03-09T08:39:48.631Z,5760
2016-03-09T08:40:48.603Z,5760
2016-03-09T08:41:48.589Z,5816
2016-03-09T08:42:48.625Z,5876
2016-03-09T08:43:48.628Z,5864
2016-03-09T08:44:48.630Z,5876
2016-03-09T08:45:48.647Z,5960
2016-03-09T08:46:48.947Z,5940
2016-03-09T08:47:48.653Z,5940
2016-03-09T08:48:48.703Z,6144
2016-03-09T08:49:48.690Z,6004
2016-03-09T08:50:48.708Z,6044
2016-03-09T08:51:48.742Z,6052
2016-03-09T08:52:48.745Z,6044
2016-03-09T08:53:48.763Z,6100
2016-03-09T08:54:48.813Z,6100
2016-03-09T08:55:48.752Z,6116
2016-03-09T08:56:48.802Z,6072
2016-03-09T08:57:48.790Z,6056
2016-03-09T08:58:48.807Z,6076
2016-03-09T08:59:48.841Z,6096
2016-03-09T09:00:48.844Z,6128
2016-03-09T09:01:48.847Z,6200
2016-03-09T09:02:48.896Z,6152
2016-03-09T09:03:48.884Z,6128
2016-03-09T09:04:48.886Z,6140
2016-03-09T09:05:48.905Z,6208
2016-03-09T09:06:48.892Z,6256
2016-03-09T09:07:48.942Z,6228
2016-03-09T09:08:48.928Z,6104
2016-03-09T09:09:48.947Z,5928
2016-03-09T09:10:48.981Z,6028
2016-03-09T09:11:48.968Z,5952
2016-03-09T09:12:48.987Z,5492
2016-03-09T09:13:48.864Z,6164
2016-03-09T09:14:49.023Z,6344
2016-03-09T09:15:49.010Z,6368
2016-03-09T09:16:49.075Z,4320
2016-03-09T09:17:49.047Z,4992
2016-03-09T09:18:49.064Z,4496
2016-03-09T09:19:49.083Z,6368
2016-03-09T09:20:49.086Z,6004
2016-03-09T09:21:49.119Z,6412
2016-03-09T09:22:49.122Z,6044
2016-03-09T09:23:49.125Z,4772
2016-03-09T09:24:49.158Z,6332
2016-03-09T09:25:49.161Z,6400
2016-03-09T09:26:49.180Z,5168
2016-03-09T09:27:49.167Z,6452
2016-03-09T09:28:49.216Z,6580
2016-03-09T09:29:49.219Z,6516
2016-03-09T09:30:49.221Z,6596
2016-03-09T09:31:49.257Z,6244
2016-03-09T09:32:49.274Z,6000
2016-03-09T09:33:49.262Z,6528
2016-03-09T09:34:49.279Z,6628
2016-03-09T09:35:49.282Z,6856
2016-03-09T09:36:49.332Z,6896
2016-03-09T09:37:49.304Z,6796
2016-03-09T09:38:49.337Z,6820
2016-03-09T09:39:49.340Z,6840
2016-03-09T09:40:49.359Z,6724
2016-03-09T09:41:49.392Z,7008
2016-03-09T09:42:49.379Z,6900
2016-03-09T09:43:49.382Z,6840
2016-03-09T09:44:49.417Z,7008
2016-03-09T09:45:49.419Z,6980
2016-03-09T09:46:49.437Z,7020
2016-03-09T09:47:49.424Z,7104
2016-03-09T09:48:49.442Z,7032
2016-03-09T09:49:49.476Z,7132
2016-03-09T09:50:49.494Z,6876
2016-03-09T09:51:49.482Z,6976
2016-03-09T09:52:49.531Z,6920
2016-03-09T09:53:49.519Z,7116
2016-03-09T09:54:49.536Z,7032
2016-03-09T09:55:49.571Z,7164
2016-03-09T09:56:49.558Z,7288
2016-03-09T09:57:49.576Z,7252
2016-03-09T09:58:49.610Z,7312
2016-03-09T09:59:49.596Z,7172
2016-03-09T10:00:49.616Z,7148
2016-03-09T10:01:49.649Z,7080
2016-03-09T10:02:49.652Z,7252
2016-03-09T10:03:49.671Z,7268
2016-03-09T10:04:49.688Z,7148
2016-03-09T10:05:49.676Z,7300
2016-03-09T10:06:49.699Z,6460
2016-03-09T10:07:49.719Z,6348
2016-03-09T10:08:49.722Z,7736
2016-03-09T10:09:49.755Z,8012
2016-03-09T10:10:49.758Z,6216
2016-03-09T10:11:49.761Z,8204
2016-03-09T10:12:49.748Z,7760
2016-03-09T10:13:49.813Z,6692
2016-03-09T10:14:49.816Z,7556
2016-03-09T10:15:49.803Z,7412
2016-03-09T10:16:49.838Z,7876
2016-03-09T10:17:49.886Z,7244
2016-03-09T10:18:49.873Z,7676
2016-03-09T10:19:49.876Z,7784
2016-03-09T10:20:49.894Z,6952
2016-03-09T10:21:49.866Z,7864
2016-03-09T10:22:49.931Z,8004
2016-03-09T10:23:49.935Z,7740
2016-03-09T10:24:49.921Z,7704
2016-03-09T10:25:49.954Z,7368
2016-03-09T10:26:49.957Z,7720
2016-03-09T10:27:49.976Z,7464
2016-03-09T10:28:50.010Z,7572
2016-03-09T10:29:50.012Z,7668
2016-03-09T10:30:50.015Z,7632
2016-03-09T10:31:50.049Z,7536
2016-03-09T10:32:50.067Z,7272
2016-03-09T10:33:50.054Z,7452
2016-03-09T10:34:50.104Z,6432
2016-03-09T10:35:50.091Z,6640
2016-03-09T10:36:50.094Z,6328
2016-03-09T10:37:50.111Z,6568
2016-03-09T10:38:50.131Z,6732
2016-03-09T10:39:50.164Z,6436
2016-03-09T10:40:50.167Z,6440
2016-03-09T10:41:50.169Z,6572
2016-03-09T10:42:50.172Z,6664
2016-03-09T10:43:50.206Z,6760
2016-03-09T10:44:50.208Z,7672
2016-03-09T10:45:50.244Z,7108
2016-03-09T10:46:50.105Z,7204
2016-03-09T10:47:50.249Z,7188
2016-03-09T10:48:50.266Z,7084
2016-03-09T10:49:50.285Z,6932
2016-03-09T10:50:50.288Z,7072
2016-03-09T10:51:50.321Z,7180
2016-03-09T10:52:50.309Z,5624
2016-03-09T10:53:50.326Z,7340
2016-03-09T10:54:50.361Z,7304
2016-03-09T10:55:50.348Z,7264
2016-03-09T10:56:50.382Z,7300
2016-03-09T10:57:50.401Z,7004
2016-03-09T10:58:50.372Z,6880
2016-03-09T10:59:50.390Z,6420
2016-03-09T11:00:50.423Z,5536
2016-03-09T11:01:50.443Z,7532
2016-03-09T11:02:50.461Z,7408
2016-03-09T11:03:50.464Z,7208
2016-03-09T11:04:50.466Z,7448
2016-03-09T11:05:50.515Z,6064
2016-03-09T11:06:50.503Z,6760
2016-03-09T11:07:50.520Z,6936
2016-03-09T11:08:50.539Z,7016
2016-03-09T11:09:50.573Z,7388
2016-03-09T11:10:50.561Z,7652
2016-03-09T11:11:50.578Z,7788
2016-03-09T11:12:50.581Z,7744
2016-03-09T11:13:50.600Z,7456
2016-03-09T11:14:50.602Z,7688
2016-03-09T11:15:50.652Z,7660
2016-03-09T11:16:50.638Z,7520
2016-03-09T11:17:50.672Z,7520
2016-03-09T11:18:50.660Z,7124
2016-03-09T11:19:50.694Z,6920
2016-03-09T11:20:50.697Z,7312
2016-03-09T11:21:50.699Z,7272
2016-03-09T11:22:50.717Z,7264
2016-03-09T11:23:50.735Z,7188
2016-03-09T11:24:50.770Z,7288
2016-03-09T11:25:50.757Z,7360
2016-03-09T11:26:50.775Z,7304
2016-03-09T11:27:50.793Z,7252
2016-03-09T11:28:50.796Z,7224
2016-03-09T11:29:50.830Z,7548
2016-03-09T11:30:50.832Z,5948
2016-03-09T11:31:50.851Z,7212
2016-03-09T11:32:50.870Z,7292
2016-03-09T11:33:50.872Z,7220
2016-03-09T11:34:50.828Z,7200
2016-03-09T11:35:50.909Z,5424
2016-03-09T11:36:50.943Z,7124
2016-03-09T11:37:51.008Z,7956
2016-03-09T11:38:50.932Z,7796
2016-03-09T11:39:50.967Z,7584
2016-03-09T11:40:50.969Z,8144
2016-03-09T11:41:51.003Z,8248
2016-03-09T11:42:51.006Z,7916
2016-03-09T11:43:51.024Z,7732
2016-03-09T11:44:51.042Z,7480
2016-03-09T11:45:51.060Z,7440
2016-03-09T11:46:51.048Z,7444
2016-03-09T11:47:51.082Z,7536
2016-03-09T11:48:51.085Z,7472
2016-03-09T11:49:51.102Z,7068
2016-03-09T11:50:51.136Z,6900
2016-03-09T11:51:51.139Z,7096
2016-03-09T11:52:51.157Z,7100
2016-03-09T11:53:51.161Z,7320
2016-03-09T11:54:51.179Z,7268
2016-03-09T11:55:51.182Z,7496
2016-03-09T11:56:51.231Z,7660
2016-03-09T11:57:50.890Z,7092
2016-03-09T11:58:51.251Z,7824
2016-03-09T11:59:51.239Z,7760
2016-03-09T12:00:51.287Z,8084
2016-03-09T12:01:51.276Z,7636
2016-03-09T12:02:51.293Z,7964
2016-03-09T12:03:51.312Z,7476
2016-03-09T12:04:51.331Z,7576
2016-03-09T12:05:51.333Z,6688
2016-03-09T12:06:51.367Z,6064
2016-03-09T12:07:51.370Z,7852
2016-03-09T12:08:51.373Z,7900
2016-03-09T12:09:51.375Z,8552
2016-03-09T12:10:51.393Z,8444
2016-03-09T12:11:51.411Z,8364
2016-03-09T12:12:51.336Z,8496
2016-03-09T12:13:51.495Z,7660
2016-03-09T12:14:51.451Z,8056
2016-03-09T12:15:51.485Z,8024
2016-03-09T12:16:51.581Z,8184
2016-03-09T12:17:51.506Z,8664
2016-03-09T12:18:51.555Z,7308
2016-03-09T12:19:51.527Z,8084
2016-03-09T12:20:51.561Z,7604
2016-03-09T12:21:51.563Z,8964
2016-03-09T12:22:51.582Z,6412
2016-03-09T12:23:51.616Z,6188
2016-03-09T12:24:51.619Z,6412
2016-03-09T12:25:52.153Z,6796
2016-03-09T12:26:51.640Z,6880
2016-03-09T12:27:51.673Z,6636
2016-03-09T12:28:51.677Z,6284
2016-03-09T12:29:51.695Z,7184
2016-03-09T12:30:51.682Z,6204
2016-03-09T12:31:51.715Z,5868
2016-03-09T12:32:51.734Z,5724
2016-03-09T12:33:51.751Z,6044
2016-03-09T12:34:51.754Z,5908
2016-03-09T12:35:51.773Z,7544
2016-03-09T12:36:51.807Z,7344
2016-03-09T12:37:51.809Z,7928
2016-03-09T12:38:51.828Z,5724
2016-03-09T12:39:51.847Z,5636
2016-03-09T12:40:51.880Z,5540
2016-03-09T12:41:51.867Z,5984
2016-03-09T12:42:51.886Z,5540
2016-03-09T12:43:51.904Z,5652
2016-03-09T12:44:51.906Z,6940
2016-03-09T12:45:51.925Z,5588
2016-03-09T12:46:51.944Z,7132
2016-03-09T12:47:51.946Z,8136
2016-03-09T12:48:52.011Z,8188
2016-03-09T12:49:51.967Z,8048
2016-03-09T12:50:52.001Z,8052
2016-03-09T12:51:52.035Z,8012
2016-03-09T12:52:52.037Z,7820
2016-03-09T12:53:52.041Z,7768
2016-03-09T12:54:52.090Z,5228
2016-03-09T12:55:52.093Z,7664
2016-03-09T12:56:51.924Z,7528
2016-03-09T12:57:52.098Z,7548
2016-03-09T12:58:52.116Z,7468
2016-03-09T12:59:52.151Z,6976
2016-03-09T13:00:52.168Z,7024
2016-03-09T13:01:52.171Z,6632
2016-03-09T13:02:52.189Z,6140
2016-03-09T13:03:52.176Z,6376
2016-03-09T13:04:52.210Z,6412
2016-03-09T13:05:52.056Z,6776
2016-03-09T13:06:52.232Z,6984
2016-03-09T13:07:52.265Z,7548
2016-03-09T13:08:52.252Z,7708
2016-03-09T13:09:52.286Z,7308
2016-03-09T13:10:52.289Z,7104
2016-03-09T13:11:52.323Z,7216
2016-03-09T13:12:52.356Z,7064
2016-03-09T13:13:52.344Z,7120
2016-03-09T13:14:52.362Z,7344
2016-03-09T13:15:52.364Z,7332
2016-03-09T13:16:52.384Z,7284
2016-03-09T13:17:52.402Z,7184
2016-03-09T13:18:52.405Z,7236
2016-03-09T13:19:52.283Z,7200
2016-03-09T13:20:52.441Z,7108
2016-03-09T13:21:52.460Z,7116
2016-03-09T13:22:52.508Z,7060
2016-03-09T13:23:52.480Z,7080
2016-03-09T13:24:52.499Z,7036
2016-03-09T13:25:52.548Z,6924
2016-03-09T13:26:52.552Z,6856
2016-03-09T13:27:52.554Z,6744
2016-03-09T13:28:52.572Z,6720
2016-03-09T13:29:52.574Z,6692
2016-03-09T13:30:52.593Z,6676
2016-03-09T13:31:52.596Z,6552
2016-03-09T13:32:52.645Z,6584
2016-03-09T13:33:52.489Z,6756
2016-03-09T13:34:52.636Z,6780
2016-03-09T13:35:52.657Z,6604
2016-03-09T13:36:52.648Z,6876
2016-03-09T13:37:52.638Z,6880
2016-03-09T13:38:52.489Z,6972
2016-03-09T13:39:52.675Z,6960
2016-03-09T13:40:52.689Z,7004
2016-03-09T13:41:52.734Z,6996
2016-03-09T13:42:52.700Z,6960
2016-03-09T13:43:52.716Z,7000
2016-03-09T13:44:52.717Z,7148
2016-03-09T13:45:52.780Z,7024
2016-03-09T13:46:52.750Z,7236
2016-03-09T13:47:52.767Z,7140
2016-03-09T13:48:52.768Z,5944
2016-03-09T13:49:52.785Z,7224
2016-03-09T13:50:52.803Z,7288
2016-03-09T13:51:52.821Z,7076
2016-03-09T13:52:52.837Z,6968
2016-03-09T13:53:52.870Z,7024
2016-03-09T13:54:52.874Z,6848